Time;durP1;ratioP1;P1;durP2;ratioP2;P2;SDS_P1;SDS_P2;PMS_P1;PMS_P2;Temp;Humidity;BMP_temperature;BMP_pressure;BME280_temperature;BME280_humidity;BME280_pressure;Samples;Min_cycle;Max_cycle;Signal;HPM_P1;HPM_P2
2023/08/31 00:01:39;;;;;;;4.50;2.43;;;16.30;99.90;;;;;;5033691;28;20919;-70
2023/08/31 00:04:07;;;;;;;5.63;2.03;;;16.10;99.90;;;;;;5034052;28;20520;-70
2023/08/31 00:06:32;;;;;;;2.10;1.90;;;16.00;99.90;;;;;;5034113;28;20186;-70
2023/08/31 00:08:58;;;;;;;1.73;1.60;;;16.00;99.90;;;;;;5034366;28;20463;-71
2023/08/31 00:11:25;;;;;;;2.70;1.90;;;16.00;99.90;;;;;;5034059;28;20181;-71
2023/08/31 00:13:52;;;;;;;3.30;2.23;;;16.00;99.90;;;;;;5034183;28;20213;-70
2023/08/31 00:16:17;;;;;;;3.00;1.87;;;16.10;99.90;;;;;;5033701;28;20432;-71
2023/08/31 00:18:45;;;;;;;3.43;2.30;;;16.00;99.90;;;;;;5033575;28;20956;-70
2023/08/31 00:21:10;;;;;;;3.57;2.20;;;16.10;99.90;;;;;;5033678;28;20550;-71
2023/08/31 00:23:37;;;;;;;3.40;2.10;;;15.90;99.90;;;;;;5033931;28;20493;-71
2023/08/31 00:26:02;;;;;;;5.17;2.83;;;16.00;99.90;;;;;;5033946;28;20421;-71
2023/08/31 00:28:28;;;;;;;2.30;2.10;;;15.80;99.90;;;;;;5034496;28;20602;-69
2023/08/31 00:30:54;;;;;;;3.83;2.50;;;15.80;99.90;;;;;;5033584;28;20170;-69
2023/08/31 00:33:20;;;;;;;2.33;2.13;;;15.90;99.90;;;;;;5031361;28;20679;-69
2023/08/31 00:35:46;;;;;;;3.33;2.50;;;15.90;99.90;;;;;;5033463;28;20543;-69
2023/08/31 00:38:12;;;;;;;2.93;1.90;;;16.00;99.90;;;;;;5033374;28;20420;-69
2023/08/31 00:40:42;;;;;;;2.73;2.10;;;16.10;99.90;;;;;;5033464;28;20178;-70
2023/08/31 00:43:08;;;;;;;4.30;2.27;;;16.10;99.90;;;;;;5033270;28;20512;-69
2023/08/31 00:45:34;;;;;;;2.17;1.97;;;16.10;99.90;;;;;;5033297;28;20995;-70
2023/08/31 00:48:00;;;;;;;2.07;1.87;;;16.00;99.90;;;;;;5033185;28;20288;-70
2023/08/31 00:50:26;;;;;;;3.83;2.30;;;16.00;99.90;;;;;;5033267;28;20842;-70
2023/08/31 00:52:52;;;;;;;3.83;2.57;;;16.00;99.90;;;;;;5031790;28;20639;-70
2023/08/31 00:55:17;;;;;;;2.23;2.03;;;15.90;99.90;;;;;;5033046;28;20424;-71
2023/08/31 00:57:43;;;;;;;4.47;3.13;;;15.90;99.90;;;;;;5033143;28;20666;-69
2023/08/31 01:00:10;;;;;;;2.97;2.23;;;15.90;99.90;;;;;;5033067;28;20168;-70
2023/08/31 01:03:05;;;;;;;3.97;3.30;;;15.70;99.90;;;;;;5032779;28;20413;-70
2023/08/31 01:06:00;;;;;;;2.70;2.50;;;15.70;99.90;;;;;;5033124;28;20444;-70
2023/08/31 01:08:33;;;;;;;3.83;3.27;;;15.50;99.90;;;;;;5032654;28;20507;-70
2023/08/31 01:11:19;;;;;;;3.30;2.77;;;15.40;99.90;;;;;;5033056;28;20494;-69
2023/08/31 01:13:51;;;;;;;3.10;2.57;;;15.30;99.90;;;;;;5032898;28;20545;-71
2023/08/31 01:16:18;;;;;;;4.60;2.70;;;15.30;99.90;;;;;;5031153;28;20413;-70
2023/08/31 01:18:45;;;;;;;3.27;2.97;;;15.20;99.90;;;;;;5033253;28;20494;-70
2023/08/31 01:21:21;;;;;;;5.80;2.83;;;15.20;99.90;;;;;;5032585;28;20495;-70
2023/08/31 01:23:50;;;;;;;3.50;2.80;;;15.10;99.90;;;;;;5033130;28;20432;-70
2023/08/31 01:26:16;;;;;;;3.00;2.40;;;15.00;99.90;;;;;;5032894;28;20409;-70
2023/08/31 01:28:42;;;;;;;4.90;2.77;;;14.90;99.90;;;;;;5033095;28;20547;-70
2023/08/31 01:31:09;;;;;;;4.10;2.67;;;14.90;99.90;;;;;;5032903;28;20403;-70
2023/08/31 01:33:35;;;;;;;2.73;2.50;;;14.90;99.90;;;;;;5032481;28;20287;-70
2023/08/31 01:36:05;;;;;;;5.70;3.13;;;14.90;99.90;;;;;;5032778;28;20536;-70
2023/08/31 01:38:33;;;;;;;4.43;2.60;;;14.80;99.90;;;;;;5032510;28;20265;-70
2023/08/31 01:41:06;;;;;;;4.80;3.50;;;14.70;99.90;;;;;;5032805;28;20533;-70
2023/08/31 01:43:35;;;;;;;4.00;3.13;;;14.70;99.90;;;;;;5033816;28;20808;-68
2023/08/31 01:46:01;;;;;;;3.60;2.80;;;14.70;99.90;;;;;;5037163;28;20511;-68
2023/08/31 01:48:27;;;;;;;3.50;2.60;;;14.60;99.90;;;;;;5036838;28;20547;-68
2023/08/31 01:50:52;;;;;;;3.40;3.10;;;14.70;99.90;;;;;;5036381;28;20188;-70
2023/08/31 01:53:18;;;;;;;7.47;3.53;;;14.60;99.90;;;;;;5036716;28;20427;-69
2023/08/31 01:55:44;;;;;;;4.00;3.70;;;14.60;99.90;;;;;;5036591;28;20245;-69
2023/08/31 01:58:09;;;;;;;4.40;3.23;;;14.60;99.90;;;;;;5036483;28;20682;-69
2023/08/31 02:00:35;;;;;;;3.47;3.17;;;14.70;99.90;;;;;;5036918;28;20199;-70
2023/08/31 02:03:01;;;;;;;3.43;3.13;;;14.70;99.90;;;;;;5036238;28;20199;-68
2023/08/31 02:05:27;;;;;;;5.70;3.53;;;14.80;99.90;;;;;;5036469;28;20461;-70
2023/08/31 02:07:52;;;;;;;3.87;3.53;;;14.90;99.90;;;;;;5036360;28;20180;-71
2023/08/31 02:10:18;;;;;;;4.50;3.00;;;15.00;99.90;;;;;;5037157;28;20198;-70
2023/08/31 02:12:43;;;;;;;2.80;2.50;;;15.10;99.90;;;;;;5036475;28;20253;-71
2023/08/31 02:15:09;;;;;;;6.27;3.47;;;15.10;99.90;;;;;;5036874;28;20169;-69
2023/08/31 02:17:35;;;;;;;4.50;3.13;;;15.10;99.90;;;;;;5035996;28;20641;-69
2023/08/31 02:20:02;;;;;;;3.97;2.80;;;15.20;99.90;;;;;;5036405;28;20197;-69
2023/08/31 02:22:35;;;;;;;4.63;3.50;;;15.10;99.90;;;;;;5035806;28;20598;-67
2023/08/31 02:25:01;;;;;;;4.03;2.40;;;15.10;99.90;;;;;;5036251;28;20424;-70
2023/08/31 02:27:27;;;;;;;5.43;2.90;;;15.10;99.90;;;;;;5036105;28;20410;-70
2023/08/31 02:29:53;;;;;;;4.20;2.90;;;15.10;99.90;;;;;;5036165;28;20644;-70
2023/08/31 02:32:19;;;;;;;3.40;2.70;;;15.20;99.90;;;;;;5035741;28;20683;-70
2023/08/31 02:34:45;;;;;;;3.30;2.50;;;15.20;99.90;;;;;;5045224;22;20520;-68
2023/08/31 02:37:10;;;;;;;3.80;3.33;;;15.30;99.90;;;;;;5015613;28;20659;-69
2023/08/31 02:39:36;;;;;;;5.57;2.50;;;15.10;99.90;;;;;;5016046;28;20177;-69
2023/08/31 02:42:02;;;;;;;2.90;2.70;;;14.90;99.90;;;;;;5026134;28;20201;-68
2023/08/31 02:44:27;;;;;;;3.20;2.80;;;15.10;99.90;;;;;;5035998;28;20269;-68
2023/08/31 02:46:53;;;;;;;2.80;2.60;;;15.20;99.90;;;;;;5035203;28;20400;-69
2023/08/31 02:49:18;;;;;;;2.80;2.60;;;15.30;99.90;;;;;;5035242;28;20251;-70
2023/08/31 02:51:44;;;;;;;4.67;2.90;;;15.40;99.90;;;;;;5027460;28;20634;-70
2023/08/31 02:54:09;;;;;;;2.63;2.30;;;15.40;99.90;;;;;;5015470;28;20194;-69
2023/08/31 02:56:35;;;;;;;3.90;2.37;;;15.50;99.90;;;;;;5014856;28;20695;-69
2023/08/31 02:59:00;;;;;;;4.10;2.83;;;15.60;99.90;;;;;;5014953;28;20660;-70
2023/08/31 03:01:26;;;;;;;2.73;2.50;;;15.70;99.90;;;;;;5020201;28;20590;-68
2023/08/31 03:03:51;;;;;;;2.33;2.10;;;15.50;99.90;;;;;;5035581;28;20665;-69
2023/08/31 03:06:17;;;;;;;3.77;2.60;;;15.50;99.90;;;;;;5026070;28;20244;-70
2023/08/31 03:08:43;;;;;;;2.90;2.60;;;15.50;99.90;;;;;;5017900;28;20661;-69
2023/08/31 03:11:09;;;;;;;3.60;2.73;;;15.40;99.90;;;;;;5018022;28;20254;-68
2023/08/31 03:13:34;;;;;;;3.30;3.00;;;15.40;99.90;;;;;;5035396;28;20614;-69
2023/08/31 03:16:00;;;;;;;2.63;2.40;;;15.30;99.90;;;;;;5016703;28;20909;-69
2023/08/31 03:18:26;;;;;;;3.30;3.00;;;15.30;99.90;;;;;;5014736;28;20269;-70
2023/08/31 03:20:52;;;;;;;2.53;2.30;;;15.20;99.90;;;;;;5015202;28;20496;-70
2023/08/31 03:23:17;;;;;;;3.50;2.87;;;15.00;99.90;;;;;;5035230;28;20924;-69
2023/08/31 03:25:43;;;;;;;4.23;2.77;;;15.00;99.90;;;;;;5034986;28;20176;-70
2023/08/31 03:28:09;;;;;;;3.40;3.10;;;15.00;99.90;;;;;;5034625;28;20692;-69
2023/08/31 03:30:35;;;;;;;2.83;2.50;;;15.10;99.90;;;;;;5034677;28;20249;-69
2023/08/31 03:33:02;;;;;;;3.53;2.80;;;15.10;99.90;;;;;;5016471;28;20893;-69
2023/08/31 03:35:28;;;;;;;3.60;3.30;;;15.10;99.90;;;;;;5014758;28;20390;-68
2023/08/31 03:37:54;;;;;;;3.07;2.77;;;15.00;99.90;;;;;;5014555;28;20423;-69
2023/08/31 03:40:20;;;;;;;2.83;2.53;;;15.10;99.90;;;;;;5014725;28;21012;-69
2023/08/31 03:42:45;;;;;;;3.03;2.60;;;14.90;99.90;;;;;;5029949;28;20914;-68
2023/08/31 03:45:11;;;;;;;3.83;2.73;;;15.00;99.90;;;;;;5032987;28;20574;-69
2023/08/31 03:47:37;;;;;;;2.60;2.30;;;14.90;99.90;;;;;;5034426;28;20182;-69
2023/08/31 03:50:03;;;;;;;4.57;2.90;;;14.80;99.90;;;;;;5034325;28;20452;-69
2023/08/31 03:52:29;;;;;;;2.93;2.63;;;14.90;99.90;;;;;;5019891;28;20170;-69
2023/08/31 03:54:55;;;;;;;4.43;2.77;;;14.90;99.90;;;;;;5014466;28;20995;-70
2023/08/31 03:57:20;;;;;;;5.80;3.43;;;14.70;99.90;;;;;;5014755;28;20200;-69
2023/08/31 03:59:46;;;;;;;5.23;3.30;;;14.80;99.90;;;;;;5014334;28;20585;-69
2023/08/31 04:02:12;;;;;;;3.10;2.80;;;14.70;99.90;;;;;;5024784;28;20182;-68
2023/08/31 04:04:37;;;;;;;5.60;3.13;;;14.80;99.90;;;;;;5033978;28;20188;-70
2023/08/31 04:07:03;;;;;;;7.50;3.10;;;14.80;99.90;;;;;;5017400;28;20550;-69
2023/08/31 04:09:29;;;;;;;4.03;3.27;;;14.80;99.90;;;;;;5014077;28;20196;-69
2023/08/31 04:11:55;;;;;;;3.57;3.00;;;14.80;99.90;;;;;;5022061;28;20417;-69
2023/08/31 04:14:21;;;;;;;3.53;3.23;;;14.80;99.90;;;;;;5033756;28;20477;-69
2023/08/31 04:16:49;;;;;;;4.87;3.63;;;14.80;99.90;;;;;;5034025;28;20196;-68
2023/08/31 04:19:16;;;;;;;3.70;3.40;;;14.80;99.90;;;;;;5033995;28;20168;-70
2023/08/31 04:21:41;;;;;;;3.83;2.80;;;14.80;99.90;;;;;;5027377;28;20416;-69
2023/08/31 04:24:07;;;;;;;3.60;3.00;;;14.80;99.90;;;;;;5013968;28;20435;-69
2023/08/31 04:26:33;;;;;;;4.97;2.90;;;14.90;99.90;;;;;;5013779;28;20171;-68
2023/08/31 04:28:58;;;;;;;4.13;2.67;;;14.90;99.90;;;;;;5013667;28;20192;-69
2023/08/31 04:31:24;;;;;;;3.20;2.90;;;14.90;99.90;;;;;;5016952;28;20167;-70
2023/08/31 04:33:53;;;;;;;3.27;2.70;;;14.80;99.90;;;;;;5033455;28;20208;-69
2023/08/31 04:36:22;;;;;;;3.90;3.20;;;14.70;99.90;;;;;;5024112;28;20178;-69
2023/08/31 04:38:48;;;;;;;4.37;3.40;;;14.70;99.90;;;;;;5013685;28;20416;-70
2023/08/31 04:41:15;;;;;;;5.50;3.33;;;14.60;99.90;;;;;;5015616;28;20907;-69
2023/08/31 04:43:40;;;;;;;6.33;3.60;;;14.60;99.90;;;;;;5033191;28;20429;-69
2023/08/31 04:46:06;;;;;;;4.30;3.30;;;14.50;99.90;;;;;;5033249;28;20492;-69
2023/08/31 04:48:32;;;;;;;4.50;2.50;;;14.50;99.90;;;;;;5033161;28;20227;-69
2023/08/31 04:50:57;;;;;;;2.60;2.40;;;14.50;99.90;;;;;;5033523;28;20164;-69
2023/08/31 04:53:23;;;;;;;4.90;3.30;;;14.50;99.90;;;;;;5013381;28;20276;-69
2023/08/31 04:55:49;;;;;;;3.50;3.20;;;14.50;99.90;;;;;;5013671;28;20631;-69
2023/08/31 04:58:14;;;;;;;4.10;2.77;;;14.50;99.90;;;;;;5013356;28;20185;-69
2023/08/31 05:00:40;;;;;;;5.57;2.90;;;14.50;99.90;;;;;;5013058;28;20683;-69
2023/08/31 05:03:06;;;;;;;3.50;2.90;;;14.40;99.90;;;;;;5028525;28;20643;-70
2023/08/31 05:05:31;;;;;;;3.37;3.00;;;14.50;99.90;;;;;;5030127;28;20181;-70
2023/08/31 05:07:58;;;;;;;4.10;3.30;;;14.50;99.90;;;;;;5014239;28;20660;-70
2023/08/31 05:10:24;;;;;;;4.93;3.13;;;14.50;99.90;;;;;;5013591;28;20167;-69
2023/08/31 05:12:49;;;;;;;4.53;3.37;;;14.60;99.90;;;;;;5026824;28;20907;-70
2023/08/31 05:15:16;;;;;;;6.30;4.10;;;14.60;99.90;;;;;;5012749;28;20644;-69
2023/08/31 05:17:41;;;;;;;6.17;3.37;;;14.60;99.90;;;;;;5020344;28;20177;-69
2023/08/31 05:20:09;;;;;;;3.30;3.00;;;14.60;99.90;;;;;;5031193;28;20781;-70
2023/08/31 05:22:35;;;;;;;3.50;2.70;;;14.60;99.90;;;;;;5020198;28;20850;-69
2023/08/31 05:25:01;;;;;;;5.00;3.10;;;14.70;99.90;;;;;;5012936;28;20425;-69
2023/08/31 05:27:26;;;;;;;3.60;3.23;;;14.80;99.90;;;;;;5012968;28;20162;-69
2023/08/31 05:29:52;;;;;;;2.87;2.60;;;14.90;99.90;;;;;;5013206;28;20697;-69
2023/08/31 05:32:17;;;;;;;3.40;3.10;;;15.00;99.90;;;;;;5021376;28;20232;-69
2023/08/31 05:34:43;;;;;;;3.03;2.73;;;15.10;99.90;;;;;;5017452;28;20230;-68
2023/08/31 05:37:08;;;;;;;4.13;2.73;;;15.10;99.90;;;;;;5013169;28;20627;-69
2023/08/31 05:39:34;;;;;;;5.53;2.83;;;15.20;99.90;;;;;;5012841;28;20569;-69
2023/08/31 05:42:00;;;;;;;3.50;3.00;;;15.30;99.90;;;;;;5020167;28;20167;-70
2023/08/31 05:44:26;;;;;;;2.90;2.50;;;15.40;99.90;;;;;;5032877;28;20255;-70
2023/08/31 05:46:52;;;;;;;3.77;3.07;;;15.40;99.90;;;;;;5032633;28;20416;-70
2023/08/31 05:49:17;;;;;;;3.13;2.63;;;15.30;99.90;;;;;;5032124;28;20206;-70
2023/08/31 05:51:43;;;;;;;5.43;2.80;;;15.40;99.90;;;;;;5027636;28;20294;-71
2023/08/31 05:54:11;;;;;;;3.23;2.90;;;15.50;99.90;;;;;;5012637;28;20187;-70
2023/08/31 05:56:40;;;;;;;4.30;3.10;;;15.50;99.90;;;;;;5012957;28;20619;-71
2023/08/31 05:59:06;;;;;;;3.80;3.37;;;15.60;99.90;;;;;;5012732;28;20429;-70
2023/08/31 06:01:36;;;;;;;2.80;2.53;;;15.40;99.90;;;;;;5015746;28;20416;-71
2023/08/31 06:04:03;;;;;;;4.43;2.93;;;15.30;99.90;;;;;;5023527;28;20954;-71
2023/08/31 06:06:28;;;;;;;4.40;2.90;;;15.30;99.90;;;;;;5012568;28;20413;-71
2023/08/31 06:08:54;;;;;;;3.57;3.00;;;15.40;99.90;;;;;;5012321;28;20435;-70
2023/08/31 06:11:21;;;;;;;3.57;2.90;;;15.10;99.90;;;;;;5013884;28;20244;-69
2023/08/31 06:13:46;;;;;;;3.83;3.00;;;15.00;99.90;;;;;;5032218;28;20179;-70
2023/08/31 06:16:12;;;;;;;6.20;3.10;;;15.10;99.90;;;;;;5031922;28;20972;-71
2023/08/31 06:18:38;;;;;;;4.20;2.77;;;15.20;99.90;;;;;;5031522;28;20178;-70
2023/08/31 06:21:03;;;;;;;5.87;3.13;;;15.20;99.90;;;;;;5028954;28;20222;-69
2023/08/31 06:23:29;;;;;;;4.00;2.67;;;15.40;99.90;;;;;;5031639;28;20212;-71
2023/08/31 06:25:54;;;;;;;3.00;2.70;;;15.50;99.90;;;;;;5030961;28;20178;-70
2023/08/31 06:28:20;;;;;;;5.07;2.90;;;15.60;99.90;;;;;;5032013;28;20263;-70
2023/08/31 06:30:47;;;;;;;4.70;2.60;;;15.60;99.90;;;;;;5017407;28;20248;-71
2023/08/31 06:33:14;;;;;;;3.10;2.80;;;15.60;99.90;;;;;;5013808;28;20174;-71
2023/08/31 06:35:39;;;;;;;2.33;2.13;;;15.70;99.90;;;;;;5016061;28;20399;-71
2023/08/31 06:38:05;;;;;;;3.07;2.60;;;15.80;99.90;;;;;;5016052;28;20414;-70
2023/08/31 06:40:31;;;;;;;3.83;2.57;;;15.90;99.90;;;;;;5027660;28;20552;-70
2023/08/31 06:42:56;;;;;;;4.33;2.47;;;15.90;99.90;;;;;;5035769;28;20247;-68
2023/08/31 06:45:22;;;;;;;5.57;2.97;;;15.90;99.90;;;;;;5035848;28;20171;-70
2023/08/31 06:47:48;;;;;;;4.87;3.20;;;16.00;99.90;;;;;;5035213;28;20189;-69
2023/08/31 06:50:13;;;;;;;4.10;2.70;;;15.90;99.90;;;;;;5025467;28;20165;-70
2023/08/31 06:52:41;;;;;;;4.23;3.00;;;15.90;99.90;;;;;;5015475;28;20556;-70
2023/08/31 06:55:06;;;;;;;3.43;2.33;;;15.80;99.90;;;;;;5015312;28;20712;-71
2023/08/31 06:57:32;;;;;;;5.27;3.00;;;15.90;99.90;;;;;;5015356;28;20496;-71
2023/08/31 06:59:58;;;;;;;3.63;2.80;;;16.10;99.90;;;;;;5023242;28;20433;-72
2023/08/31 07:02:26;;;;;;;4.43;2.93;;;16.30;99.90;;;;;;5035005;28;20174;-71
2023/08/31 07:04:52;;;;;;;4.93;2.87;;;16.70;99.90;;;;;;5019798;28;20675;-70
2023/08/31 07:07:18;;;;;;;3.43;2.80;;;17.00;99.90;;;;;;5018364;28;20408;-70
2023/08/31 07:09:46;;;;;;;3.57;2.37;;;17.00;99.90;;;;;;5020446;28;20276;-70
2023/08/31 07:12:11;;;;;;;2.77;2.20;;;17.20;99.90;;;;;;5034915;28;20409;-71
2023/08/31 07:14:37;;;;;;;3.60;2.27;;;17.20;99.90;;;;;;5034741;28;20486;-69
2023/08/31 07:17:03;;;;;;;3.90;2.80;;;17.30;99.90;;;;;;5034679;28;20181;-70
2023/08/31 07:19:28;;;;;;;4.73;2.60;;;17.50;99.90;;;;;;5023111;28;20611;-72
2023/08/31 07:21:57;;;;;;;6.87;2.23;;;17.60;99.90;;;;;;5035167;28;20174;-71
2023/08/31 07:24:23;;;;;;;4.23;2.73;;;17.50;99.90;;;;;;5034774;28;20720;-73
2023/08/31 07:26:50;;;;;;;2.90;2.20;;;17.60;99.90;;;;;;5034602;28;20413;-74
2023/08/31 07:29:15;;;;;;;6.47;3.97;;;17.60;99.90;;;;;;5033300;28;20444;-71
2023/08/31 07:31:41;;;;;;;5.37;4.57;;;17.60;99.90;;;;;;5014718;28;20414;-71
2023/08/31 07:34:07;;;;;;;5.10;3.37;;;17.80;99.90;;;;;;5014123;28;20218;-70
2023/08/31 07:36:34;;;;;;;3.17;2.27;;;17.70;99.90;;;;;;5014777;28;20282;-72
2023/08/31 07:38:59;;;;;;;4.83;2.20;;;17.50;99.90;;;;;;5014623;28;20495;-74
2023/08/31 07:41:25;;;;;;;3.90;3.50;;;17.40;99.90;;;;;;5032828;28;20670;-74
2023/08/31 07:43:50;;;;;;;3.30;2.47;;;17.60;99.90;;;;;;5034158;28;20202;-70
2023/08/31 07:46:18;;;;;;;3.33;2.37;;;17.60;99.90;;;;;;5034465;28;20257;-71
2023/08/31 07:48:43;;;;;;;4.63;2.47;;;17.80;99.90;;;;;;5033758;28;20194;-72
2023/08/31 07:51:09;;;;;;;2.80;2.30;;;17.50;99.90;;;;;;5018775;28;20481;-72
2023/08/31 07:53:34;;;;;;;5.27;2.43;;;17.60;99.90;;;;;;5014936;28;20758;-70
2023/08/31 07:56:00;;;;;;;2.63;2.13;;;17.70;99.90;;;;;;5013881;28;20263;-70
2023/08/31 07:58:26;;;;;;;7.50;3.03;;;17.50;99.90;;;;;;5014450;28;20228;-70
2023/08/31 08:00:55;;;;;;;4.13;2.90;;;17.70;99.90;;;;;;5027886;28;20231;-70
2023/08/31 08:03:22;;;;;;;5.03;2.90;;;17.70;99.90;;;;;;5030754;28;20213;-74
2023/08/31 08:05:47;;;;;;;3.73;2.10;;;17.60;99.90;;;;;;5014019;28;20994;-75
2023/08/31 08:08:13;;;;;;;4.93;2.40;;;17.70;99.90;;;;;;5013978;28;20454;-76
2023/08/31 08:10:39;;;;;;;5.07;2.77;;;17.90;99.90;;;;;;5026021;28;20179;-76
2023/08/31 08:13:04;;;;;;;3.10;2.43;;;17.90;99.90;;;;;;5033937;28;20206;-70
2023/08/31 08:15:31;;;;;;;3.93;2.53;;;17.90;99.90;;;;;;5033962;28;20175;-71
2023/08/31 08:17:59;;;;;;;3.93;2.60;;;17.80;99.90;;;;;;5033719;28;20164;-70
2023/08/31 08:20:25;;;;;;;3.97;2.30;;;17.90;99.90;;;;;;5023270;28;20415;-74
2023/08/31 08:22:54;;;;;;;5.10;2.90;;;18.10;99.90;;;;;;5013949;28;20426;-74
2023/08/31 08:25:20;;;;;;;6.37;2.30;;;18.10;99.90;;;;;;5012430;28;20226;-70
2023/08/31 08:27:47;;;;;;;3.40;2.40;;;18.40;99.90;;;;;;5013977;28;20410;-69
2023/08/31 08:30:13;;;;;;;3.97;2.37;;;18.60;99.90;;;;;;5021656;28;20457;-68
2023/08/31 08:32:39;;;;;;;4.47;2.20;;;18.70;99.90;;;;;;5033080;28;20418;-74
2023/08/31 08:35:05;;;;;;;3.10;2.40;;;18.90;99.90;;;;;;5015833;28;20528;-74
2023/08/31 08:37:33;;;;;;;3.43;2.83;;;18.80;99.90;;;;;;5012407;28;20183;-72
2023/08/31 08:39:58;;;;;;;4.87;2.50;;;18.70;99.90;;;;;;5019954;28;20429;-69
2023/08/31 08:42:25;;;;;;;4.33;2.53;;;18.80;99.90;;;;;;5034037;28;20493;-69
2023/08/31 08:44:50;;;;;;;4.87;2.43;;;18.60;99.90;;;;;;5033057;28;20195;-70
2023/08/31 08:47:17;;;;;;;2.80;2.27;;;18.40;99.90;;;;;;5033527;28;20455;-70
2023/08/31 08:49:43;;;;;;;7.40;2.53;;;18.60;99.90;;;;;;5028781;28;20282;-69
2023/08/31 08:52:09;;;;;;;4.07;2.53;;;18.70;99.90;;;;;;5013353;28;20893;-71
2023/08/31 08:54:35;;;;;;;4.47;2.37;;;18.80;99.90;;;;;;5012855;28;20206;-75
2023/08/31 08:57:01;;;;;;;2.93;2.00;;;18.80;99.90;;;;;;5013602;28;20403;-75
2023/08/31 08:59:27;;;;;;;5.60;2.37;;;19.00;99.90;;;;;;5014860;28;20411;-71
2023/08/31 09:01:53;;;;;;;3.57;2.60;;;19.10;99.90;;;;;;5016485;28;20554;-69
2023/08/31 09:04:19;;;;;;;3.13;2.07;;;19.10;99.90;;;;;;5011231;28;20450;-70
2023/08/31 09:06:45;;;;;;;4.27;2.50;;;19.30;99.90;;;;;;5013309;28;20182;-69
2023/08/31 09:09:11;;;;;;;4.73;2.70;;;19.50;99.90;;;;;;5012988;28;20454;-69
2023/08/31 09:11:36;;;;;;;4.70;2.20;;;19.30;99.90;;;;;;5031791;28;20493;-69
2023/08/31 09:14:19;;;;;;;4.80;2.30;;;19.20;99.90;;;;;;5019307;28;20198;-69
2023/08/31 09:16:46;;;;;;;3.77;2.17;;;19.30;99.90;;;;;;5032668;28;20249;-68
2023/08/31 09:19:23;;;;;;;2.83;2.30;;;19.10;99.90;;;;;;5032395;28;20464;-70
2023/08/31 09:21:50;;;;;;;5.30;2.17;;;19.10;99.90;;;;;;4992009;28;20906;-74
2023/08/31 09:24:17;;;;;;;4.03;2.30;;;19.30;99.90;;;;;;4993254;28;20442;-73
2023/08/31 09:26:44;;;;;;;5.60;2.67;;;19.40;99.90;;;;;;4993539;28;20404;-74
2023/08/31 09:29:10;;;;;;;5.47;2.10;;;19.50;99.90;;;;;;4993760;28;20989;-73
2023/08/31 09:31:36;;;;;;;4.43;2.30;;;19.60;99.90;;;;;;5030020;28;20402;-74
2023/08/31 09:34:03;;;;;;;2.33;2.13;;;19.90;99.90;;;;;;5027672;28;20246;-69
2023/08/31 09:36:28;;;;;;;3.47;2.10;;;19.70;99.90;;;;;;5013141;28;20175;-69
2023/08/31 09:38:58;;;;;;;4.20;2.30;;;19.50;99.90;;;;;;5012660;28;20411;-70
2023/08/31 09:41:23;;;;;;;4.40;2.17;;;19.40;99.90;;;;;;5029447;28;20186;-71
2023/08/31 09:43:49;;;;;;;4.33;2.60;;;19.10;99.90;;;;;;5032583;28;20434;-70
2023/08/31 09:46:15;;;;;;;4.50;2.27;;;19.00;99.90;;;;;;5032426;28;20210;-72
2023/08/31 09:48:42;;;;;;;2.80;2.00;;;19.10;99.90;;;;;;5031900;28;20197;-71
2023/08/31 09:51:10;;;;;;;4.67;2.50;;;19.40;99.90;;;;;;5017912;28;20399;-73
2023/08/31 09:53:37;;;;;;;3.73;2.30;;;19.40;99.90;;;;;;5012781;28;20418;-73
2023/08/31 09:56:06;;;;;;;2.90;1.90;;;19.80;99.90;;;;;;5012654;28;20394;-70
2023/08/31 09:58:33;;;;;;;4.23;2.77;;;20.20;99.10;;;;;;5012382;28;20745;-71
2023/08/31 10:00:59;;;;;;;5.00;2.20;;;20.10;98.80;;;;;;5025603;28;20421;-69
2023/08/31 10:03:27;;;;;;;4.10;2.13;;;19.90;98.40;;;;;;5032529;28;20453;-71
2023/08/31 10:05:53;;;;;;;3.30;2.47;;;20.10;98.40;;;;;;5014119;28;20411;-70
2023/08/31 10:08:19;;;;;;;4.43;2.10;;;20.40;96.50;;;;;;5016247;28;20454;-72
2023/08/31 10:10:45;;;;;;;2.70;1.93;;;20.30;96.30;;;;;;5027331;28;20424;-70
2023/08/31 10:13:11;;;;;;;3.37;2.10;;;20.30;96.20;;;;;;5036306;28;20225;-70
2023/08/31 10:15:37;;;;;;;4.00;2.80;;;20.30;96.50;;;;;;5034800;28;20406;-70
2023/08/31 10:18:04;;;;;;;4.77;2.80;;;20.20;96.20;;;;;;5036364;28;20195;-70
2023/08/31 10:20:32;;;;;;;3.43;2.50;;;20.00;95.60;;;;;;5026634;28;20399;-70
2023/08/31 10:22:58;;;;;;;4.30;2.90;;;20.40;97.00;;;;;;5016921;28;20461;-70
2023/08/31 10:25:26;;;;;;;4.13;2.40;;;20.70;96.00;;;;;;5016405;28;20964;-71
2023/08/31 10:27:52;;;;;;;4.23;2.30;;;20.80;95.50;;;;;;5016273;28;20905;-70
2023/08/31 10:30:26;;;;;;;3.10;2.50;;;20.80;94.70;;;;;;5022968;28;20446;-70
2023/08/31 10:33:09;;;;;;;6.00;2.80;;;20.10;95.00;;;;;;5035563;28;20459;-70
2023/08/31 10:35:47;;;;;;;4.03;2.30;;;20.00;95.80;;;;;;5017978;28;20461;-70
2023/08/31 10:38:33;;;;;;;5.63;2.60;;;19.80;96.20;;;;;;5015791;28;20387;-70
2023/08/31 10:41:08;;;;;;;5.80;2.33;;;19.60;97.10;;;;;;5026541;28;20394;-70
2023/08/31 10:43:54;;;;;;;6.87;2.70;;;19.40;96.90;;;;;;5034826;28;20448;-70
2023/08/31 10:46:32;;;;;;;4.60;2.67;;;19.60;97.50;;;;;;5034147;28;20814;-70
2023/08/31 10:49:09;;;;;;;3.03;2.40;;;20.00;97.20;;;;;;5033679;28;20960;-70
2023/08/31 10:51:36;;;;;;;3.63;2.50;;;20.50;96.60;;;;;;5017712;28;20422;-69
2023/08/31 10:54:05;;;;;;;3.43;2.20;;;20.70;96.20;;;;;;5015395;28;20501;-69
2023/08/31 10:56:31;;;;;;;5.60;2.87;;;20.90;96.90;;;;;;5015667;28;20403;-69
2023/08/31 10:59:00;;;;;;;4.47;2.60;;;21.20;95.40;;;;;;5015795;28;20421;-69
2023/08/31 11:01:52;;;;;;;6.63;3.23;;;21.00;95.60;;;;;;5031266;28;20175;-69
2023/08/31 11:04:18;;;;;;;5.27;2.70;;;20.70;93.90;;;;;;5019413;28;20437;-70
2023/08/31 11:06:44;;;;;;;6.60;3.03;;;20.20;95.00;;;;;;5017771;28;20403;-70
2023/08/31 11:09:19;;;;;;;5.83;2.80;;;19.80;95.20;;;;;;5015499;28;20192;-70
2023/08/31 11:11:45;;;;;;;5.83;2.20;;;19.90;96.30;;;;;;5033512;28;20191;-69
2023/08/31 11:14:10;;;;;;;4.50;2.60;;;19.80;96.50;;;;;;5034966;28;20446;-70
2023/08/31 11:16:38;;;;;;;5.03;2.67;;;19.90;96.50;;;;;;5034302;28;20218;-71
2023/08/31 11:19:04;;;;;;;3.90;2.40;;;20.20;96.90;;;;;;5034676;28;20164;-71
2023/08/31 11:21:31;;;;;;;4.27;2.50;;;19.90;97.00;;;;;;5018616;28;20465;-71
2023/08/31 11:23:58;;;;;;;6.13;2.47;;;19.90;97.00;;;;;;5023997;28;20222;-70
2023/08/31 11:26:25;;;;;;;4.73;2.33;;;20.00;97.00;;;;;;5034823;28;20463;-71
2023/08/31 11:28:51;;;;;;;5.27;2.60;;;20.10;96.60;;;;;;5034998;28;20500;-71
2023/08/31 11:31:26;;;;;;;3.53;2.50;;;21.30;95.80;;;;;;5020621;28;20909;-70
2023/08/31 11:33:53;;;;;;;4.30;2.63;;;22.40;94.10;;;;;;5014257;28;20210;-71
2023/08/31 11:36:19;;;;;;;5.90;3.13;;;22.80;93.80;;;;;;5014243;28;20438;-71
2023/08/31 11:38:45;;;;;;;4.73;2.53;;;22.80;94.30;;;;;;5014764;28;20399;-71
2023/08/31 11:41:11;;;;;;;3.93;2.10;;;22.80;92.30;;;;;;5028019;28;20205;-70
2023/08/31 11:43:37;;;;;;;6.23;2.80;;;22.20;92.60;;;;;;5034534;28;20250;-69
2023/08/31 11:46:04;;;;;;;4.50;2.37;;;21.90;93.70;;;;;;5034399;28;20509;-69
2023/08/31 11:48:30;;;;;;;3.23;2.07;;;21.80;93.90;;;;;;5034185;28;20453;-69
2023/08/31 11:50:57;;;;;;;4.10;2.47;;;21.70;94.20;;;;;;5023020;28;20802;-70
2023/08/31 11:53:22;;;;;;;6.60;3.00;;;21.60;94.00;;;;;;5014371;28;20805;-69
2023/08/31 11:55:52;;;;;;;7.50;2.50;;;21.60;93.90;;;;;;5014403;28;20490;-70
2023/08/31 11:58:17;;;;;;;4.20;2.40;;;21.60;94.10;;;;;;5014543;28;20172;-69
2023/08/31 12:00:44;;;;;;;3.80;2.63;;;21.60;93.60;;;;;;5023342;28;20946;-68
2023/08/31 12:03:09;;;;;;;5.67;2.90;;;21.40;94.20;;;;;;5034089;28;20225;-68
2023/08/31 12:05:48;;;;;;;4.77;2.23;;;21.80;93.90;;;;;;5027103;28;20415;-68
2023/08/31 12:08:15;;;;;;;3.63;2.60;;;21.90;93.40;;;;;;5012725;28;20199;-70
2023/08/31 12:10:41;;;;;;;5.20;2.80;;;21.70;93.40;;;;;;5023103;28;20437;-70
2023/08/31 12:13:12;;;;;;;3.43;2.20;;;21.90;93.70;;;;;;5019140;28;20423;-71
2023/08/31 12:15:38;;;;;;;4.50;2.70;;;22.40;93.50;;;;;;5014226;28;20398;-71
2023/08/31 12:18:11;;;;;;;2.57;2.30;;;21.90;93.30;;;;;;5013916;28;20403;-69
2023/08/31 12:21:04;;;;;;;4.87;2.57;;;21.60;93.70;;;;;;5021621;28;20707;-71
2023/08/31 12:23:30;;;;;;;5.10;2.40;;;21.90;94.00;;;;;;5031090;28;20521;-71
2023/08/31 12:25:55;;;;;;;3.73;3.20;;;22.60;94.00;;;;;;5033531;28;20485;-72
2023/08/31 12:28:23;;;;;;;5.67;2.40;;;23.10;92.00;;;;;;5032241;28;20210;-72
2023/08/31 12:30:50;;;;;;;5.57;2.50;;;22.60;91.50;;;;;;5023981;28;20164;-71
2023/08/31 12:33:17;;;;;;;3.57;2.40;;;22.60;92.70;;;;;;5013655;28;21132;-68
2023/08/31 12:35:43;;;;;;;4.80;2.90;;;22.20;92.30;;;;;;5013746;28;20387;-70
2023/08/31 12:38:09;;;;;;;3.93;2.60;;;22.00;92.60;;;;;;5014164;28;20448;-74
2023/08/31 12:40:34;;;;;;;3.80;2.67;;;22.10;93.50;;;;;;5020970;28;20411;-71
2023/08/31 12:43:00;;;;;;;10.70;2.47;;;22.70;93.30;;;;;;5020538;28;20187;-74
2023/08/31 12:45:25;;;;;;;3.03;2.20;;;23.20;92.70;;;;;;5014033;28;20164;-71
2023/08/31 12:47:51;;;;;;;6.63;2.33;;;25.10;88.00;;;;;;5013540;28;20168;-68